Detall de PIREP

Printer-friendly versionPDF version

[2014/01/04 10:14:00]
Flight IATA:CT1004
Pilot Number:042
Company ICAO:CAT
Aircraft Type:F70/A
PAX:23
Aircraft Registration:PFJ
Departing Airport: LERS
Destination Airport: LEGR
Alternate Airport:LEMD
Online: VATSIM
Route:EBROX UM985 VIBAS
Flight Level:F330
No Slew and time accel
No pause
Crash detect
Detect pilot in Cockpit between each 30 and 45 minutes
10:14 Zero fuel Weight: 72667 Lbs, Fuel Weight: 22687 Lbs
10:14 VATSIM:LERS 041000Z 00000KT 6000 FEW030 SCT050 12/12 Q1012
10:14 VATSIM:LEGR 041000Z 29004KT 250V330 9999 FEW015 SCT035 14/10 Q1024
10:14 VOICE CATALONIAN/X-MAS CHARTER
10:25 Parking Brakes off
10:29 Take-off
10:29 Take off Weight: 94923 Lbs
10:29 Wind: 216º @ 000 Knots Heading: 249º
10:29 POS N41º 08´ 45´´ E001º 09´ 44´´
10:29 Gear Up: 160 Knots
10:29 Flaps:2 at 161 Knots
10:29 Flaps:1 at 165 Knots
10:30 Flaps:0 at 189 Knots
10:44 Wind:236º@032 Knots Heading: 228º Ground Speed: 315 Knots Altitude 26788 ft
10:59 Wind:248º@076 Knots Heading: 234º Ground Speed: 376 Knots Altitude 29061 ft
11:14 Wind:237º@063 Knots Heading: 228º Ground Speed: 381 Knots Altitude 29150 ft
11:29 Wind:230º@001 Knots Heading: 182º Ground Speed: 296 Knots Altitude 11811 ft
11:33 Flaps:1 at 197 Knots
11:40 Flaps:2 at 181 Knots
11:40 Gear Down: 173 Knots
11:40 Flaps:3 at 173 Knots
11:43 TouchDown:Rate -266 ft/min Speed: 141 Knots
11:43 Flaps:4 at 116 Knots
11:43 VATSIM:LEGR 041130Z VRB01KT 9999 FEW035 16/09 Q1022
11:43 Land
11:43 Wind:230º@000 Knots
11:43 Heading: 089º
11:43 Flight Duration: 01:14
11:43 Landing Weight: 88729 Lbs
11:43 POS N37º 11´ 19´´ W003º 46´ 39´´
11:47 Parking brakes on
11:47 Block to Block Duration: 01:22
11:47 Final Fuel: 15901 Lbls
11:47 Spent Fuel: 6785 Lbls
11:47 Flight Length: 393 NM
11:47 TOD Land Length: 393 NM

Exportar CSV

Powered by Drupal - Modified by Danger4k